createdAt,value
2019-01-10T00:01:16.427Z,0.75
2019-01-10T00:05:22.798Z,0.63
2019-01-10T00:09:27.901Z,0.49
2019-01-10T00:13:33.040Z,0.39
2019-01-10T00:17:38.149Z,0.35
2019-01-10T00:21:48.998Z,0.21
2019-01-10T00:25:54.153Z,0.27
2019-01-10T00:29:59.321Z,0.17
2019-01-10T00:34:04.480Z,0.07
2019-01-10T00:38:10.010Z,0.02
2019-01-10T00:42:15.163Z,-0.05
2019-01-10T00:46:21.292Z,-0.06
2019-01-10T00:50:27.403Z,-0.09
2019-01-10T00:54:32.487Z,-0.10
2019-01-10T00:58:37.537Z,-0.05
2019-01-10T01:02:42.570Z,-0.26
2019-01-10T01:06:47.696Z,-0.45
2019-01-10T01:10:56.243Z,-0.44
2019-01-10T01:15:01.551Z,-0.40
2019-01-10T01:19:07.666Z,-0.39
2019-01-10T01:23:12.795Z,-0.33
2019-01-10T01:27:17.934Z,-0.47
2019-01-10T01:31:24.003Z,-0.67
2019-01-10T01:35:30.075Z,-0.57
2019-01-10T01:39:35.234Z,-0.63
2019-01-10T01:43:40.342Z,-0.61
2019-01-10T01:47:45.606Z,-0.60
2019-01-10T01:51:51.699Z,-0.71
2019-01-10T01:55:56.877Z,-0.79
2019-01-10T02:00:02.123Z,-0.65
2019-01-10T02:04:08.302Z,-0.71
2019-01-10T02:08:13.372Z,-0.73
2019-01-10T02:12:20.266Z,-0.72
2019-01-10T02:16:25.353Z,-0.83
2019-01-10T02:20:30.497Z,-0.92
2019-01-10T02:24:35.629Z,-0.93
2019-01-10T02:28:40.847Z,-0.89
2019-01-10T02:32:46.217Z,-0.86
2019-01-10T02:36:51.281Z,-0.82
2019-01-10T02:40:56.462Z,-0.84
2019-01-10T02:45:01.583Z,-0.98
2019-01-10T02:49:06.847Z,-0.95
2019-01-10T02:53:12.027Z,-0.84
2019-01-10T02:57:18.063Z,-0.91
2019-01-10T03:01:25.184Z,-0.81
2019-01-10T03:05:30.446Z,-0.91
2019-01-10T03:09:35.628Z,-0.99
2019-01-10T03:13:40.620Z,-0.97
2019-01-10T03:17:45.768Z,-1.00
2019-01-10T03:21:50.989Z,-0.99
2019-01-10T03:25:56.195Z,-0.92
2019-01-10T03:30:01.341Z,-0.90
2019-01-10T03:34:06.392Z,-0.97
2019-01-10T03:38:11.522Z,-1.04
2019-01-10T03:42:16.652Z,-0.96
2019-01-10T03:46:21.734Z,-0.90
2019-01-10T03:50:26.911Z,-0.93
2019-01-10T03:54:32.277Z,-0.91
2019-01-10T03:58:37.474Z,-0.99
2019-01-10T04:02:44.992Z,-1.02
2019-01-10T04:06:50.441Z,-1.00
2019-01-10T04:10:56.076Z,-0.99
2019-01-10T04:15:01.198Z,-1.07
2019-01-10T04:19:06.265Z,-1.05
2019-01-10T04:23:11.397Z,-1.05
2019-01-10T04:27:16.484Z,-1.02
2019-01-10T04:31:21.537Z,-0.99
2019-01-10T04:35:26.679Z,-1.02
2019-01-10T04:39:31.831Z,-1.08
2019-01-10T04:43:36.972Z,-0.95
2019-01-10T04:47:42.326Z,-0.94
2019-01-10T04:51:47.339Z,-0.97
2019-01-10T04:55:52.372Z,-0.97
2019-01-10T04:59:57.484Z,-0.97
2019-01-10T05:04:02.508Z,-1.00
2019-01-10T05:08:07.571Z,-0.92
2019-01-10T05:12:13.328Z,-0.97
2019-01-10T05:16:18.640Z,-1.00
2019-01-10T05:20:24.127Z,-0.95
2019-01-10T05:24:29.706Z,-0.96
2019-01-10T05:28:34.804Z,-0.94
2019-01-10T05:32:40.009Z,-0.95
2019-01-10T05:36:45.137Z,-0.97
2019-01-10T05:40:50.278Z,-0.91
2019-01-10T05:44:55.370Z,-0.80
2019-01-10T05:49:00.494Z,-0.89
2019-01-10T05:53:05.596Z,-0.92
2019-01-10T05:57:10.786Z,-0.95
2019-01-10T06:01:15.902Z,-0.77
2019-01-10T06:05:21.086Z,-0.87
2019-01-10T06:09:26.223Z,-0.79
2019-01-10T06:13:31.266Z,-0.89
2019-01-10T06:17:36.408Z,-1.00
2019-01-10T06:21:41.481Z,-0.83
2019-01-10T06:25:46.644Z,-0.52
2019-01-10T06:29:51.746Z,-0.25
2019-01-10T06:33:56.921Z,-0.08
2019-01-10T06:38:02.201Z,-0.48
2019-01-10T06:42:07.311Z,-0.35
2019-01-10T06:46:12.461Z,-0.33
2019-01-10T06:50:17.893Z,0.13
2019-01-10T06:54:22.929Z,-0.34
2019-01-10T06:58:27.931Z,-0.77
2019-01-10T07:02:32.957Z,-0.76
2019-01-10T07:06:39.332Z,-0.74
2019-01-10T07:10:44.479Z,-0.70
2019-01-10T07:14:53.712Z,-0.61
2019-01-10T07:18:57.364Z,-0.64
2019-01-10T07:23:02.727Z,-0.62
2019-01-10T07:27:08.224Z,-0.52
2019-01-10T07:31:29.022Z,-0.62
2019-01-10T07:35:35.030Z,-0.66
2019-01-10T07:39:40.287Z,-0.71
2019-01-10T07:43:45.462Z,-0.59
2019-01-10T07:47:51.231Z,-0.68
2019-01-10T07:51:57.564Z,-0.81
2019-01-10T07:56:06.623Z,-0.78
2019-01-10T08:00:12.573Z,-0.70
2019-01-10T08:04:17.877Z,-0.71
2019-01-10T08:08:23.015Z,-0.71
2019-01-10T08:12:28.096Z,-0.72
2019-01-10T08:16:35.364Z,-0.72
2019-01-10T08:20:40.026Z,-0.58
2019-01-10T08:24:45.240Z,-0.52
2019-01-10T08:28:50.367Z,-0.51
2019-01-10T08:32:55.531Z,-0.54
2019-01-10T08:37:00.672Z,-0.62
2019-01-10T08:41:05.725Z,-0.53
2019-01-10T08:45:11.483Z,-0.49
2019-01-10T08:49:18.520Z,-0.49
2019-01-10T08:53:23.710Z,-0.57
2019-01-10T08:57:28.889Z,-0.47
2019-01-10T09:01:33.954Z,-0.45
2019-01-10T09:05:39.071Z,-0.52
2019-01-10T09:09:44.053Z,-0.43
2019-01-10T09:13:49.111Z,-0.49
2019-01-10T09:17:54.396Z,-0.35
2019-01-10T09:21:59.485Z,-0.42
2019-01-10T09:26:04.660Z,-0.41
2019-01-10T09:30:13.594Z,-0.41
2019-01-10T09:34:24.699Z,-0.39
2019-01-10T09:38:25.359Z,-0.22
2019-01-10T09:42:30.469Z,-0.37
2019-01-10T09:46:35.538Z,-0.32
2019-01-10T09:50:40.708Z,-0.29
2019-01-10T09:54:45.762Z,-0.26
2019-01-10T09:58:51.268Z,-0.20
2019-01-10T10:02:56.310Z,-0.12
2019-01-10T10:07:01.482Z,-0.15
2019-01-10T10:11:06.653Z,0.05
2019-01-10T10:15:12.169Z,-0.07
2019-01-10T10:19:17.235Z,0.02
2019-01-10T10:23:26.870Z,-0.08
2019-01-10T10:27:28.959Z,0.17
2019-01-10T10:31:34.001Z,0.22
2019-01-10T10:35:50.045Z,0.10
2019-01-10T10:39:55.174Z,0.28
2019-01-10T10:44:01.571Z,0.25
2019-01-10T10:48:07.619Z,0.29
2019-01-10T10:52:12.698Z,0.33
2019-01-10T10:56:17.739Z,0.29
2019-01-10T11:00:29.870Z,0.13
2019-01-10T11:04:34.882Z,0.33
2019-01-10T11:08:40.043Z,0.49
2019-01-10T11:12:45.429Z,0.50
2019-01-10T11:16:50.574Z,0.58
2019-01-10T11:20:55.710Z,0.67
2019-01-10T11:25:00.917Z,0.53
2019-01-10T11:29:06.114Z,0.71
2019-01-10T11:33:11.189Z,0.89
2019-01-10T11:37:17.463Z,1.15
2019-01-10T11:41:22.525Z,1.03
2019-01-10T11:45:28.539Z,1.20
2019-01-10T11:49:33.853Z,1.08
2019-01-10T11:53:38.886Z,1.03
2019-01-10T11:57:44.255Z,1.24
2019-01-10T12:01:49.299Z,1.51
2019-01-10T12:06:25.904Z,1.55
2019-01-10T12:10:30.964Z,1.71
2019-01-10T12:14:35.988Z,2.05
2019-01-10T12:18:41.045Z,1.95
2019-01-10T12:22:46.221Z,1.88
2019-01-10T12:26:51.383Z,2.34
2019-01-10T12:30:56.521Z,2.46
2019-01-10T12:35:02.432Z,1.98
2019-01-10T12:39:08.410Z,2.40
2019-01-10T12:43:13.507Z,2.61
2019-01-10T12:47:18.872Z,2.25
2019-01-10T12:51:25.639Z,2.00
2019-01-10T12:55:30.704Z,1.96
2019-01-10T12:59:35.825Z,1.92
2019-01-10T13:03:40.883Z,1.89
2019-01-10T13:07:46.029Z,1.91
2019-01-10T13:11:51.194Z,2.33
2019-01-10T13:15:56.237Z,2.35
2019-01-10T13:20:01.320Z,2.16
2019-01-10T13:24:07.773Z,2.54
2019-01-10T13:28:13.132Z,2.72
2019-01-10T13:32:18.251Z,2.91
2019-01-10T13:36:23.426Z,2.80
2019-01-10T13:40:28.567Z,2.61
2019-01-10T13:44:34.841Z,2.28
2019-01-10T13:48:39.911Z,2.30
2019-01-10T13:52:45.275Z,2.29
2019-01-10T13:56:51.337Z,2.23
2019-01-10T14:00:56.439Z,2.08
2019-01-10T14:05:01.611Z,2.04
2019-01-10T14:09:09.684Z,2.21
2019-01-10T14:13:14.774Z,2.09
2019-01-10T14:17:19.817Z,2.31
2019-01-10T14:21:24.889Z,2.05
2019-01-10T14:25:29.984Z,2.24
2019-01-10T14:29:35.190Z,2.50
2019-01-10T14:33:40.274Z,2.23
2019-01-10T14:37:47.111Z,2.10
2019-01-10T14:41:52.520Z,2.20
2019-01-10T14:45:57.586Z,2.17
2019-01-10T14:50:02.774Z,2.16
2019-01-10T14:54:08.486Z,1.98
2019-01-10T14:58:13.804Z,2.01
2019-01-10T15:02:22.219Z,1.99
2019-01-10T15:06:27.588Z,1.95
2019-01-10T15:10:32.639Z,1.88
2019-01-10T15:14:37.720Z,1.90
2019-01-10T15:18:42.847Z,1.74
2019-01-10T15:22:47.945Z,1.79
2019-01-10T15:26:52.958Z,1.75
2019-01-10T15:30:58.095Z,1.71
2019-01-10T15:35:05.990Z,1.70
2019-01-10T15:39:11.232Z,1.68
2019-01-10T15:43:16.425Z,1.68
2019-01-10T15:47:21.587Z,1.64
2019-01-10T15:51:26.902Z,1.63
2019-01-10T15:55:32.050Z,1.62
2019-01-10T15:59:37.206Z,1.49
2019-01-10T16:03:42.340Z,1.57
2019-01-10T16:07:52.497Z,1.58
2019-01-10T16:11:58.594Z,1.55
2019-01-10T16:16:04.960Z,1.53
2019-01-10T16:20:10.492Z,1.62
2019-01-10T16:24:24.534Z,1.63
2019-01-10T16:28:29.627Z,1.56
2019-01-10T16:32:34.995Z,1.57
2019-01-10T16:36:40.177Z,1.53
2019-01-10T16:41:10.847Z,1.78
2019-01-10T16:45:21.623Z,1.81
2019-01-10T16:49:26.781Z,1.68
2019-01-10T16:53:32.043Z,1.71
2019-01-10T16:57:37.367Z,1.83
2019-01-10T17:01:44.537Z,1.83
2019-01-10T17:05:49.710Z,1.77
2019-01-10T17:09:54.872Z,1.72
2019-01-10T17:13:59.964Z,1.80
2019-01-10T17:18:05.393Z,1.88
2019-01-10T17:22:10.498Z,1.81
2019-01-10T17:26:15.672Z,1.80
2019-01-10T17:30:32.885Z,1.67
2019-01-10T17:34:38.109Z,1.70
2019-01-10T17:38:43.285Z,1.75
2019-01-10T17:42:48.983Z,1.64
2019-01-10T17:46:54.125Z,1.71
2019-01-10T17:50:59.264Z,1.59
2019-01-10T17:55:05.100Z,1.68
2019-01-10T17:59:10.298Z,1.65
2019-01-10T18:03:15.722Z,1.48
2019-01-10T18:07:21.061Z,1.45
2019-01-10T18:11:27.078Z,1.57
2019-01-10T18:15:33.181Z,1.63
2019-01-10T18:19:38.572Z,1.72
2019-01-10T18:23:45.781Z,1.62
2019-01-10T18:27:51.178Z,1.73
2019-01-10T18:31:56.554Z,1.73
2019-01-10T18:36:01.710Z,1.73
2019-01-10T18:40:07.558Z,1.65
2019-01-10T18:44:14.693Z,1.71
2019-01-10T18:48:20.145Z,1.71
2019-01-10T18:52:25.257Z,1.72
2019-01-10T18:56:30.521Z,1.72
2019-01-10T19:00:35.725Z,1.59
2019-01-10T19:04:42.939Z,1.73
2019-01-10T19:08:48.047Z,1.67
2019-01-10T19:12:53.473Z,1.69
2019-01-10T19:16:58.629Z,1.57
2019-01-10T19:21:03.906Z,1.50
2019-01-10T19:25:09.221Z,1.59
2019-01-10T19:29:14.924Z,1.48
2019-01-10T19:33:21.159Z,1.39
2019-01-10T19:37:26.491Z,1.37
2019-01-10T19:41:32.824Z,1.39
2019-01-10T19:45:39.025Z,1.35
2019-01-10T19:49:44.170Z,1.25
2019-01-10T19:53:50.319Z,1.11
2019-01-10T19:57:55.560Z,1.14
2019-01-10T20:02:00.718Z,0.94
2019-01-10T20:06:07.558Z,1.01
2019-01-10T20:10:13.910Z,0.88
2019-01-10T20:14:18.977Z,0.95
2019-01-10T20:18:24.491Z,0.96
2019-01-10T20:22:29.921Z,1.10
2019-01-10T20:26:35.068Z,0.88
2019-01-10T20:30:41.126Z,0.85
2019-01-10T20:34:46.223Z,0.88
2019-01-10T20:38:51.383Z,0.80
2019-01-10T20:42:56.479Z,0.84
2019-01-10T20:47:01.637Z,0.91
2019-01-10T20:51:06.768Z,0.94
2019-01-10T20:55:13.152Z,0.73
2019-01-10T20:59:19.238Z,0.86
2019-01-10T21:03:26.518Z,0.74
2019-01-10T21:07:32.701Z,0.70
2019-01-10T21:11:48.779Z,0.71
2019-01-10T21:15:56.808Z,0.65
2019-01-10T21:20:01.869Z,0.67
2019-01-10T21:24:08.307Z,0.64
2019-01-10T21:28:16.924Z,0.72
2019-01-10T21:32:22.958Z,0.68
2019-01-10T21:36:28.216Z,0.67
2019-01-10T21:40:33.320Z,0.66
2019-01-10T21:44:40.829Z,0.68
2019-01-10T21:48:45.955Z,0.68
2019-01-10T21:52:54.132Z,0.70
2019-01-10T21:57:01.745Z,0.76
2019-01-10T22:01:07.005Z,0.85
2019-01-10T22:05:12.116Z,0.88
2019-01-10T22:09:17.394Z,0.87
2019-01-10T22:18:53.504Z,0.98
2019-01-10T22:22:59.177Z,0.92
2019-01-10T22:27:04.426Z,0.92
2019-01-10T22:31:09.557Z,0.79
2019-01-10T22:35:16.658Z,0.74
2019-01-10T22:39:23.413Z,0.78
2019-01-10T22:43:28.652Z,0.82
2019-01-10T22:47:33.906Z,0.68
2019-01-10T22:51:38.886Z,0.74
2019-01-10T22:55:44.066Z,0.68
2019-01-10T22:59:50.515Z,0.67
2019-01-10T23:03:56.781Z,0.60
2019-01-10T23:08:01.926Z,0.60
2019-01-10T23:12:08.611Z,0.66
2019-01-10T23:16:18.519Z,0.54
2019-01-10T23:20:23.620Z,0.53
2019-01-10T23:24:28.761Z,0.53
2019-01-10T23:28:39.797Z,0.53
2019-01-10T23:32:44.825Z,0.54
2019-01-10T23:36:53.383Z,0.59
2019-01-10T23:40:58.628Z,0.49
2019-01-10T23:45:03.948Z,0.53
2019-01-10T23:49:09.081Z,0.50
2019-01-10T23:53:14.655Z,0.64
2019-01-10T23:57:20.813Z,0.58
